Irishtown, Illinois
Current Conditions -  °F | °C
As of 1:35 PM on Thursday 30 Oct 2014 (Local Time) from KENL Reporting Station
Scattered Clouds Scattered Clouds  
Wind Chill: 55°   Ceiling: Unl
Heat Index: 55°   Visibility: 10mi
Dew Point: 38°   Wind: 7mph
Humidity: 53%   Direction: 160°SSE
Pressure: 30.09"   Gusts: NA
Location:  38.7527°N, 89.3215°W
Report Text: KENL 301835Z AUTO 16006KT 10SM SCT100 13/03 A3009 RMK AO2 T01290034
Loading
Personal Weather Stations






























Interactive Weather Map New forecast layout! Learn more

10-Day Weather Forecast

Advertisements
Track Severe Weather on mobile